Time;durP1;ratioP1;P1;durP2;ratioP2;P2;SDS_P1;SDS_P2;PMS_P1;PMS_P2;Temp;Humidity;BMP_temperature;BMP_pressure;BME280_temperature;BME280_humidity;BME280_pressure;Samples;Min_cycle;Max_cycle;Signal;HPM_P1;HPM_P2
2023/07/25 00:00:43;;;;;;;3.15;1.10;;;16.80;99.90;;;15.82;100.00;96745.44;4947552;28;20083;-75
2023/07/25 00:03:10;;;;;;;2.15;1.30;;;16.80;99.90;;;15.99;100.00;96739.75;4943245;28;20050;-74
2023/07/25 00:05:37;;;;;;;2.55;1.15;;;16.90;99.90;;;16.04;100.00;96739.38;4947144;28;20051;-74
2023/07/25 00:08:04;;;;;;;4.82;1.30;;;16.90;99.90;;;15.94;100.00;96736.63;4946190;28;20052;-74
2023/07/25 00:10:34;;;;;;;2.42;1.20;;;16.90;99.90;;;15.96;100.00;96739.97;4945653;28;20519;-75
2023/07/25 00:13:01;;;;;;;2.63;1.15;;;17.00;99.90;;;15.85;100.00;96734.72;4947504;28;20039;-74
2023/07/25 00:15:28;;;;;;;4.30;1.00;;;16.80;99.90;;;15.98;100.00;96734.63;4947270;28;20055;-74
2023/07/25 00:17:56;;;;;;;2.67;1.05;;;16.80;99.90;;;15.94;100.00;96731.38;4947680;28;20129;-74
2023/07/25 00:20:23;;;;;;;2.00;1.00;;;16.90;99.90;;;15.92;100.00;96724.59;4947727;28;20055;-74
2023/07/25 00:22:50;;;;;;;3.38;1.20;;;16.80;99.90;;;16.06;100.00;96722.59;4944951;28;20806;-74
2023/07/25 00:25:18;;;;;;;3.00;1.05;;;16.90;99.90;;;16.01;100.00;96721.28;4944698;28;20082;-74
2023/07/25 00:27:45;;;;;;;3.97;1.10;;;16.90;99.90;;;16.03;100.00;96727.22;4946920;28;20047;-75
2023/07/25 00:30:12;;;;;;;4.43;1.13;;;17.00;99.90;;;16.07;100.00;96724.25;4964143;28;20126;-75
2023/07/25 00:32:39;;;;;;;2.15;1.00;;;16.90;99.90;;;16.12;100.00;96723.88;4945524;28;20071;-75
2023/07/25 00:35:07;;;;;;;2.10;1.00;;;17.00;99.90;;;16.01;100.00;96727.38;4947836;28;20075;-74
2023/07/25 00:37:34;;;;;;;2.53;1.05;;;17.00;99.90;;;16.06;100.00;96730.44;4945112;28;20131;-74
2023/07/25 00:40:02;;;;;;;2.55;1.20;;;16.90;99.90;;;16.02;100.00;96726.41;4946253;28;20039;-75
2023/07/25 00:42:29;;;;;;;2.35;0.80;;;16.90;99.90;;;15.95;100.00;96733.06;4947120;28;20043;-75
2023/07/25 00:44:56;;;;;;;2.80;0.98;;;16.90;99.90;;;15.99;100.00;96741.53;4948013;28;20119;-74
2023/07/25 00:47:27;;;;;;;2.55;0.98;;;16.90;99.90;;;16.03;100.00;96727.22;4944888;28;20472;-75
2023/07/25 00:49:54;;;;;;;2.22;1.10;;;16.80;99.90;;;16.00;100.00;96725.69;4947050;28;20059;-75
2023/07/25 00:52:22;;;;;;;3.63;1.05;;;16.80;99.90;;;15.67;100.00;96726.50;4946114;28;20079;-75
2023/07/25 00:54:50;;;;;;;1.92;1.00;;;16.80;99.90;;;15.82;100.00;96735.78;4943229;28;20102;-74
2023/07/25 00:57:19;;;;;;;2.05;0.93;;;16.80;99.90;;;15.83;100.00;96727.00;4947372;28;20058;-74
2023/07/25 00:59:47;;;;;;;2.40;1.13;;;16.70;99.90;;;15.78;100.00;96723.06;4947134;28;20055;-74
2023/07/25 01:02:17;;;;;;;1.73;1.00;;;16.70;99.90;;;15.79;100.00;96725.56;4963165;28;20051;-73
2023/07/25 01:04:44;;;;;;;5.07;1.45;;;16.70;99.90;;;15.58;100.00;96727.19;4951774;28;20050;-74
2023/07/25 01:07:15;;;;;;;4.47;1.25;;;16.70;99.90;;;15.50;100.00;96729.56;4925443;28;20131;-74
2023/07/25 01:09:45;;;;;;;5.72;1.30;;;16.50;99.90;;;15.56;100.00;96734.34;4935999;28;20171;-74
2023/07/25 01:12:13;;;;;;;3.72;1.20;;;16.40;99.90;;;15.64;100.00;96730.16;4932985;29;20115;-74
2023/07/25 01:14:41;;;;;;;5.50;1.20;;;16.50;99.90;;;15.73;100.00;96726.03;4949574;28;20102;-74
2023/07/25 01:17:17;;;;;;;4.53;1.33;;;16.50;99.90;;;15.73;100.00;96723.41;4945687;28;20055;-74
2023/07/25 01:19:47;;;;;;;4.03;1.00;;;16.50;99.90;;;15.80;100.00;96723.78;4931040;28;20131;-74
2023/07/25 01:22:14;;;;;;;5.80;1.55;;;16.60;99.90;;;15.56;100.00;96727.31;4948355;28;20139;-74
2023/07/25 01:24:44;;;;;;;3.05;1.45;;;16.60;99.90;;;15.63;100.00;96731.13;4946802;28;20583;-74
2023/07/25 01:27:15;;;;;;;3.17;1.00;;;16.60;99.90;;;15.91;100.00;96731.63;4951400;28;20071;-74
2023/07/25 01:29:43;;;;;;;2.92;1.10;;;16.60;99.90;;;15.99;100.00;96717.97;4934182;29;20049;-75
2023/07/25 01:32:11;;;;;;;3.65;1.30;;;16.70;99.90;;;15.76;100.00;96719.72;4949519;28;20062;-74
2023/07/25 01:34:39;;;;;;;2.97;1.20;;;16.80;99.90;;;15.75;100.00;96711.06;4950410;28;20141;-74
2023/07/25 01:37:06;;;;;;;2.08;1.02;;;16.70;99.90;;;15.81;100.00;96723.69;4949557;28;20129;-74
2023/07/25 01:39:34;;;;;;;2.92;1.00;;;16.60;99.90;;;15.78;100.00;96720.44;4948436;28;20046;-74
2023/07/25 01:42:01;;;;;;;2.40;0.95;;;16.50;99.90;;;15.71;100.00;96733.16;4947896;28;20512;-74
2023/07/25 01:44:28;;;;;;;3.50;1.58;;;16.50;99.90;;;15.57;100.00;96744.66;4944130;28;20055;-74
2023/07/25 01:46:59;;;;;;;3.33;1.13;;;16.40;99.90;;;15.64;100.00;96724.94;4950901;28;20114;-74
2023/07/25 01:49:26;;;;;;;2.70;1.10;;;16.40;99.90;;;15.69;100.00;96720.19;4948308;28;20057;-74
2023/07/25 01:51:53;;;;;;;4.68;1.40;;;16.40;99.90;;;15.89;100.00;96720.44;4950004;28;20155;-74
2023/07/25 01:54:20;;;;;;;4.18;1.15;;;16.40;99.90;;;15.89;100.00;96717.84;4949126;28;20509;-74
2023/07/25 01:56:47;;;;;;;5.70;1.30;;;16.40;99.90;;;15.88;100.00;96714.41;4935129;28;20059;-74
2023/07/25 01:59:17;;;;;;;1.90;1.00;;;16.40;99.90;;;15.79;100.00;96701.19;4948568;28;20054;-73
2023/07/25 02:01:47;;;;;;;2.72;1.10;;;16.40;99.90;;;15.79;100.00;96715.09;4951146;28;20114;-74
2023/07/25 02:04:14;;;;;;;5.15;1.60;;;16.40;99.90;;;15.66;100.00;96720.41;4945386;28;20145;-74
2023/07/25 02:06:41;;;;;;;4.82;1.63;;;16.30;99.90;;;15.47;100.00;96721.00;4946599;28;20133;-73
2023/07/25 02:09:09;;;;;;;2.88;1.50;;;16.30;99.90;;;15.59;100.00;96716.59;4945159;28;20056;-74
2023/07/25 02:11:36;;;;;;;4.13;1.40;;;16.30;99.90;;;15.60;100.00;96717.44;4942891;28;20043;-74
2023/07/25 02:14:03;;;;;;;2.42;1.00;;;16.30;99.90;;;15.64;100.00;96716.25;4946654;28;20145;-74
2023/07/25 02:16:30;;;;;;;2.70;1.25;;;16.30;99.90;;;15.64;100.00;96718.88;4941628;28;20138;-73
2023/07/25 02:19:00;;;;;;;4.60;1.77;;;16.20;99.90;;;15.44;100.00;96718.63;4952688;28;20117;-74
2023/07/25 02:21:28;;;;;;;2.58;1.30;;;16.30;99.90;;;15.56;100.00;96716.03;4951490;28;20524;-74
2023/07/25 02:23:56;;;;;;;3.03;1.35;;;16.20;99.90;;;15.57;100.00;96717.69;4945860;28;20138;-74
2023/07/25 02:26:23;;;;;;;4.50;1.27;;;16.20;99.90;;;15.35;100.00;96721.94;4946836;28;20133;-73
2023/07/25 02:28:50;;;;;;;3.45;1.25;;;16.20;99.90;;;15.30;100.00;96721.44;4945669;28;20055;-73
2023/07/25 02:31:18;;;;;;;5.38;1.70;;;16.20;99.90;;;15.31;100.00;96720.50;4947986;28;20134;-74
2023/07/25 02:33:45;;;;;;;5.28;1.60;;;16.20;99.90;;;15.33;100.00;96729.06;4946869;28;20123;-76
2023/07/25 02:36:12;;;;;;;5.07;1.67;;;16.10;99.90;;;15.34;100.00;96729.88;4951904;28;20137;-75
2023/07/25 02:38:39;;;;;;;5.47;1.77;;;16.10;99.90;;;15.33;100.00;96736.06;4951238;28;20126;-75
2023/07/25 02:41:07;;;;;;;5.72;1.20;;;16.10;99.90;;;15.28;100.00;96736.41;4944239;28;20047;-75
2023/07/25 02:43:34;;;;;;;3.67;1.75;;;16.10;99.90;;;15.17;100.00;96728.53;4947945;28;20055;-75
2023/07/25 02:46:01;;;;;;;5.65;1.70;;;16.00;99.90;;;15.21;100.00;96733.44;4947628;28;20054;-76
2023/07/25 02:48:28;;;;;;;2.55;1.42;;;16.00;99.90;;;15.22;100.00;96732.47;4946373;28;20077;-75
2023/07/25 02:50:55;;;;;;;4.85;1.52;;;15.90;99.90;;;15.28;100.00;96728.56;4935274;28;20583;-76
2023/07/25 02:53:22;;;;;;;4.10;1.67;;;16.00;99.90;;;15.34;100.00;96722.88;4959779;28;20055;-75
2023/07/25 02:55:49;;;;;;;2.55;1.20;;;16.10;99.90;;;15.47;100.00;96723.59;4948752;28;20138;-76
2023/07/25 02:58:16;;;;;;;4.53;1.25;;;16.20;99.90;;;15.58;100.00;96707.09;4945116;28;20110;-76
2023/07/25 03:00:43;;;;;;;7.32;1.30;;;16.30;99.90;;;15.62;100.00;96708.53;4947088;28;20103;-75
2023/07/25 03:03:11;;;;;;;2.30;1.13;;;16.40;99.90;;;15.66;100.00;96704.72;4951543;28;20051;-75
2023/07/25 03:05:38;;;;;;;4.38;1.70;;;16.40;99.90;;;15.42;100.00;96704.00;4952735;28;20054;-76
2023/07/25 03:08:05;;;;;;;2.78;1.13;;;16.40;99.90;;;15.46;100.00;96706.25;4945491;28;20118;-75
2023/07/25 03:10:33;;;;;;;2.15;1.17;;;16.30;99.90;;;15.44;100.00;96702.06;4939379;28;20101;-75
2023/07/25 03:13:00;;;;;;;5.07;1.38;;;16.30;99.90;;;15.32;100.00;96709.06;4949171;28;20062;-75
2023/07/25 03:15:27;;;;;;;4.78;1.52;;;16.20;99.90;;;15.34;100.00;96707.19;4947032;28;20043;-76
2023/07/25 03:17:54;;;;;;;3.33;1.45;;;16.20;99.90;;;15.36;100.00;96710.50;4966041;28;20607;-76
2023/07/25 03:20:22;;;;;;;3.40;1.50;;;16.20;99.90;;;15.30;100.00;96710.13;4950003;28;20051;-75
2023/07/25 03:22:49;;;;;;;4.68;1.48;;;16.20;99.90;;;15.20;100.00;96708.22;4950363;28;20083;-75
2023/07/25 03:25:16;;;;;;;2.95;1.52;;;16.20;99.90;;;15.20;100.00;96710.84;4944040;28;20531;-76
2023/07/25 03:27:43;;;;;;;3.05;1.48;;;16.20;99.90;;;15.32;100.00;96709.06;4946348;28;20043;-76
2023/07/25 03:30:11;;;;;;;3.85;1.38;;;16.10;99.90;;;15.36;100.00;96720.16;4948042;28;20502;-75
2023/07/25 03:32:38;;;;;;;4.10;1.48;;;16.10;99.90;;;15.36;100.00;96704.47;4945866;28;20063;-76
2023/07/25 03:35:06;;;;;;;5.95;2.00;;;16.10;99.90;;;15.24;100.00;96704.44;4940798;28;20655;-75
2023/07/25 03:37:33;;;;;;;4.40;1.52;;;16.10;99.90;;;15.21;100.00;96703.81;4947961;28;20055;-76
2023/07/25 03:40:00;;;;;;;4.03;1.50;;;16.10;99.90;;;15.16;100.00;96719.84;4948230;28;20209;-76
2023/07/25 03:42:27;;;;;;;2.70;1.35;;;16.00;99.90;;;15.15;100.00;96718.19;4946480;28;20051;-76
2023/07/25 03:44:54;;;;;;;4.57;1.58;;;16.00;99.90;;;15.14;100.00;96719.13;4944168;28;20118;-75
2023/07/25 03:47:21;;;;;;;2.75;1.63;;;16.00;99.90;;;15.19;100.00;96717.03;4947359;28;20055;-75
2023/07/25 03:49:49;;;;;;;7.07;1.77;;;16.00;99.90;;;15.25;100.00;96716.53;4943635;28;20051;-75
2023/07/25 03:52:16;;;;;;;3.28;1.50;;;16.00;99.90;;;15.28;100.00;96712.88;4946597;28;20043;-76
2023/07/25 03:54:42;;;;;;;4.32;1.60;;;16.00;99.90;;;15.18;100.00;96717.94;4941417;28;20046;-76
2023/07/25 03:57:09;;;;;;;3.90;1.88;;;16.00;99.90;;;15.14;100.00;96720.91;4945257;28;20086;-75
2023/07/25 03:59:37;;;;;;;3.22;1.58;;;16.00;99.90;;;15.22;100.00;96716.78;4950006;28;20054;-75
2023/07/25 04:02:05;;;;;;;6.07;1.75;;;15.90;99.90;;;15.27;100.00;96727.72;4947278;28;20783;-75
2023/07/25 04:04:33;;;;;;;6.43;1.95;;;15.90;99.90;;;15.14;100.00;96728.75;4945928;28;20134;-75
2023/07/25 04:07:00;;;;;;;6.18;1.75;;;15.80;99.90;;;15.17;100.00;96731.16;4947768;28;20067;-75
2023/07/25 04:09:27;;;;;;;5.15;1.60;;;15.90;99.90;;;15.19;100.00;96731.84;4947862;28;20055;-76
2023/07/25 04:11:55;;;;;;;6.53;2.15;;;15.90;99.90;;;15.10;100.00;96733.41;4947025;28;20059;-75
2023/07/25 04:14:22;;;;;;;4.30;1.50;;;15.80;99.90;;;15.15;100.00;96736.50;4949426;28;20110;-76
2023/07/25 04:16:49;;;;;;;4.10;2.13;;;15.70;99.90;;;15.06;100.00;96729.34;4946721;28;20055;-75
2023/07/25 04:19:16;;;;;;;4.30;1.58;;;15.80;99.90;;;15.18;100.00;96735.44;4946589;28;20052;-75
2023/07/25 04:21:43;;;;;;;4.47;1.67;;;15.80;99.90;;;15.15;100.00;96741.72;4947154;28;20058;-76
2023/07/25 04:24:10;;;;;;;5.53;1.80;;;15.70;99.90;;;15.09;100.00;96739.56;4927546;29;20107;-75
2023/07/25 04:26:37;;;;;;;4.45;2.20;;;15.70;99.90;;;15.08;100.00;96742.31;4947834;28;20046;-75
2023/07/25 04:29:04;;;;;;;7.20;2.03;;;15.80;99.90;;;15.05;100.00;96732.88;4948219;28;20055;-75
2023/07/25 04:31:31;;;;;;;5.15;2.03;;;15.70;99.90;;;15.05;100.00;96725.91;4948387;28;20507;-75
2023/07/25 04:33:59;;;;;;;6.03;2.05;;;15.70;99.90;;;15.14;100.00;96741.81;4946529;28;20130;-74
2023/07/25 04:36:29;;;;;;;4.63;1.70;;;15.70;99.90;;;15.19;100.00;96735.31;4948610;28;20104;-75
2023/07/25 04:38:56;;;;;;;5.03;2.35;;;15.70;99.90;;;15.10;100.00;96748.22;4961338;28;20063;-75
2023/07/25 04:41:23;;;;;;;4.32;1.90;;;15.60;99.90;;;15.19;100.00;96752.75;4949338;28;20047;-75
2023/07/25 04:43:51;;;;;;;4.25;1.70;;;15.70;99.90;;;15.12;100.00;96751.56;4949221;28;20062;-75
2023/07/25 04:46:20;;;;;;;4.78;1.77;;;15.60;99.90;;;15.11;100.00;96748.13;4951927;28;20047;-74
2023/07/25 04:48:47;;;;;;;4.82;1.75;;;15.70;99.90;;;15.07;100.00;96757.13;4948455;28;20478;-74
2023/07/25 04:51:14;;;;;;;4.90;1.73;;;15.70;99.90;;;15.13;100.00;96767.13;4936190;28;20065;-73
2023/07/25 04:53:41;;;;;;;3.58;1.60;;;15.70;99.90;;;15.10;100.00;96777.81;4945464;28;20138;-74
2023/07/25 04:56:09;;;;;;;5.30;2.22;;;15.70;99.90;;;15.22;100.00;96773.47;4948421;28;20067;-74
2023/07/25 04:58:38;;;;;;;5.43;2.28;;;15.70;99.90;;;15.30;100.00;96781.56;4949049;28;20134;-74
2023/07/25 05:01:05;;;;;;;4.53;2.20;;;15.80;99.90;;;15.27;100.00;96777.41;4929952;28;20051;-74
2023/07/25 05:03:32;;;;;;;5.18;1.90;;;15.80;99.90;;;15.24;100.00;96785.47;4926434;29;20048;-74
2023/07/25 05:06:00;;;;;;;6.68;2.10;;;15.80;99.90;;;15.39;100.00;96787.88;4948707;28;20091;-74
2023/07/25 05:08:27;;;;;;;3.70;1.50;;;15.70;99.90;;;15.36;100.00;96783.72;4945124;28;20511;-74
2023/07/25 05:10:55;;;;;;;4.40;2.00;;;15.80;99.90;;;15.50;100.00;96779.25;4950840;28;20595;-76
2023/07/25 05:13:22;;;;;;;4.32;2.25;;;16.00;99.90;;;15.40;100.00;96779.94;4948936;28;20047;-76
2023/07/25 05:15:51;;;;;;;6.68;2.53;;;16.00;99.90;;;15.41;100.00;96792.06;4944277;28;20043;-75
2023/07/25 05:18:19;;;;;;;2.80;1.45;;;16.10;99.90;;;15.56;100.00;96784.84;4945308;28;20162;-74
2023/07/25 05:20:46;;;;;;;5.40;2.25;;;16.20;99.90;;;15.43;100.00;96784.94;4947227;28;20061;-75
2023/07/25 05:23:13;;;;;;;5.18;2.15;;;16.20;99.90;;;15.50;100.00;96787.09;4942253;28;20055;-76
2023/07/25 05:25:40;;;;;;;5.10;2.15;;;16.20;99.90;;;15.41;100.00;96786.00;4947502;28;20058;-75
2023/07/25 05:28:07;;;;;;;4.78;2.13;;;16.20;99.90;;;15.43;100.00;96792.78;4945812;28;20280;-75
2023/07/25 05:30:34;;;;;;;4.03;2.10;;;16.20;99.90;;;15.55;100.00;96795.41;4944115;28;20760;-72
2023/07/25 05:33:03;;;;;;;2.90;1.90;;;16.20;99.90;;;15.35;100.00;96792.53;4951113;28;20050;-76
2023/07/25 05:35:30;;;;;;;3.40;1.88;;;16.10;99.90;;;15.34;100.00;96793.47;4954479;28;20051;-75
2023/07/25 05:37:57;;;;;;;5.05;2.47;;;16.10;99.90;;;15.30;100.00;96794.63;4945680;28;20051;-75
2023/07/25 05:40:24;;;;;;;4.25;1.77;;;16.00;99.90;;;15.24;100.00;96803.78;4952176;28;20051;-76
2023/07/25 05:42:51;;;;;;;3.95;2.08;;;16.00;99.90;;;15.35;100.00;96796.91;4944003;28;20058;-76
2023/07/25 05:45:22;;;;;;;3.97;2.00;;;16.00;99.90;;;15.41;100.00;96789.44;4953047;28;20129;-75
2023/07/25 05:47:48;;;;;;;4.57;1.58;;;16.00;99.90;;;15.42;100.00;96779.84;4950854;28;20042;-75
2023/07/25 05:50:16;;;;;;;3.88;1.90;;;16.10;99.90;;;15.45;100.00;96771.75;4952350;28;20055;-75
2023/07/25 05:52:43;;;;;;;4.35;1.77;;;16.10;99.90;;;15.48;100.00;96768.91;4948869;28;20074;-75
2023/07/25 05:55:10;;;;;;;4.13;1.70;;;16.10;99.90;;;15.48;100.00;96782.78;4949419;28;20077;-76
2023/07/25 05:57:37;;;;;;;3.95;1.30;;;16.10;99.90;;;15.55;100.00;96779.72;4950277;28;20110;-75
2023/07/25 06:00:05;;;;;;;2.33;1.40;;;16.20;99.90;;;15.56;100.00;96774.41;4947751;28;20099;-75
2023/07/25 06:02:32;;;;;;;3.83;1.35;;;16.20;99.90;;;15.54;100.00;96778.91;4946913;28;20405;-75
2023/07/25 06:05:00;;;;;;;4.38;1.48;;;16.20;99.90;;;15.72;100.00;96771.47;4952183;28;20516;-75
2023/07/25 06:07:27;;;;;;;5.43;1.67;;;16.30;99.90;;;15.82;100.00;96769.81;4945581;28;20059;-76
2023/07/25 06:09:54;;;;;;;5.30;1.85;;;16.40;99.90;;;15.97;100.00;96764.38;4945635;28;20105;-75
2023/07/25 06:12:21;;;;;;;4.10;1.70;;;16.60;99.90;;;16.08;100.00;96772.22;4944543;28;20043;-75
2023/07/25 06:14:48;;;;;;;4.00;1.77;;;16.70;99.90;;;16.33;100.00;96767.66;4940619;28;20098;-76
2023/07/25 06:17:15;;;;;;;3.40;1.27;;;16.70;99.90;;;16.66;100.00;96751.06;4946972;28;20054;-75
2023/07/25 06:19:42;;;;;;;5.65;1.67;;;17.00;99.90;;;16.55;100.00;96748.47;4947067;28;20058;-76
2023/07/25 06:22:14;;;;;;;3.97;1.58;;;17.00;99.90;;;16.55;100.00;96735.38;4958414;28;20874;-75
2023/07/25 06:24:44;;;;;;;5.00;1.67;;;17.00;99.90;;;16.58;100.00;96732.50;4947853;28;20051;-75
2023/07/25 06:27:11;;;;;;;5.68;2.00;;;17.00;99.90;;;16.62;100.00;96724.25;4943826;28;20138;-75
2023/07/25 06:29:38;;;;;;;6.82;1.60;;;17.10;99.90;;;16.77;100.00;96732.69;4947967;28;20487;-75
2023/07/25 06:32:06;;;;;;;2.50;1.50;;;17.10;99.90;;;16.71;100.00;96717.44;4949655;28;20150;-75
2023/07/25 06:34:33;;;;;;;4.40;1.75;;;17.20;99.90;;;17.04;100.00;96710.47;4945262;28;20055;-74
2023/07/25 06:37:01;;;;;;;2.97;1.55;;;17.30;99.90;;;17.23;100.00;96707.97;4960341;28;20055;-75
2023/07/25 06:39:28;;;;;;;3.78;1.98;;;17.50;99.90;;;17.45;100.00;96686.00;4940184;28;20067;-75
2023/07/25 06:41:55;;;;;;;9.65;2.05;;;17.70;99.90;;;17.28;100.00;96674.31;4946237;28;20553;-74
2023/07/25 06:44:23;;;;;;;3.78;1.63;;;17.80;99.90;;;17.13;100.00;96671.19;4943041;28;20047;-75
2023/07/25 06:46:51;;;;;;;5.00;1.50;;;17.80;99.90;;;17.03;100.00;96678.13;4948521;28;20112;-75
2023/07/25 06:49:18;;;;;;;4.32;1.55;;;17.60;99.90;;;16.73;100.00;96682.31;4942488;28;20047;-76
2023/07/25 06:51:45;;;;;;;3.90;1.30;;;17.50;99.90;;;16.67;100.00;96689.81;4946855;28;20110;-75
2023/07/25 06:54:14;;;;;;;5.85;1.80;;;17.30;99.90;;;16.48;100.00;96687.88;4945834;28;20087;-75
2023/07/25 06:56:43;;;;;;;4.55;1.70;;;17.10;99.90;;;16.45;100.00;96686.34;4944094;28;20484;-75
2023/07/25 06:59:10;;;;;;;3.60;1.42;;;17.00;99.90;;;16.63;100.00;96698.91;4944763;28;20051;-76
2023/07/25 07:01:37;;;;;;;4.95;1.45;;;16.90;99.90;;;16.59;100.00;96687.03;4941824;28;20066;-76
2023/07/25 07:04:04;;;;;;;3.70;1.30;;;17.00;99.90;;;16.63;100.00;96691.06;4943023;28;20057;-76
2023/07/25 07:06:31;;;;;;;3.83;1.48;;;17.00;99.90;;;16.60;100.00;96692.09;4947975;28;20078;-75
2023/07/25 07:08:58;;;;;;;4.57;1.40;;;17.10;99.90;;;16.59;100.00;96679.16;4946094;28;20046;-74
2023/07/25 07:11:25;;;;;;;5.10;1.50;;;17.00;99.90;;;16.55;100.00;96665.47;4951121;28;20055;-76
2023/07/25 07:13:52;;;;;;;4.65;1.80;;;17.00;99.90;;;16.72;100.00;96674.59;4947178;28;20508;-76
2023/07/25 07:16:19;;;;;;;8.00;1.95;;;17.00;99.90;;;16.66;100.00;96664.59;4949265;28;20147;-75
2023/07/25 07:18:46;;;;;;;3.83;1.55;;;17.10;99.90;;;16.50;100.00;96670.25;4945654;28;20054;-75
2023/07/25 07:21:14;;;;;;;4.60;1.50;;;17.10;99.90;;;16.70;100.00;96666.03;4947242;28;20058;-76
2023/07/25 07:23:42;;;;;;;3.25;1.38;;;17.20;99.90;;;16.97;100.00;96662.09;4945840;28;20634;-75
2023/07/25 07:26:10;;;;;;;4.78;1.77;;;17.30;99.90;;;17.11;100.00;96649.50;4947964;28;20047;-75
2023/07/25 07:28:37;;;;;;;4.07;1.50;;;17.50;99.90;;;17.46;100.00;96629.94;4943030;28;20160;-76
2023/07/25 07:31:08;;;;;;;3.63;1.60;;;17.60;99.90;;;17.54;100.00;96610.94;4946774;28;20678;-76
2023/07/25 07:33:35;;;;;;;5.45;1.67;;;17.80;99.90;;;17.89;100.00;96599.19;4944645;28;20043;-76
2023/07/25 07:36:03;;;;;;;3.80;1.33;;;18.10;99.90;;;18.05;100.00;96585.53;4948792;28;20051;-75
2023/07/25 07:38:30;;;;;;;4.32;1.23;;;18.20;99.90;;;17.86;100.00;96579.28;4942402;28;20846;-75
2023/07/25 07:40:58;;;;;;;2.92;1.30;;;18.10;99.90;;;17.80;100.00;96569.28;4945104;28;20051;-76
2023/07/25 07:43:25;;;;;;;4.43;1.38;;;18.10;99.90;;;18.00;100.00;96564.13;4950668;28;20103;-76
2023/07/25 07:45:52;;;;;;;4.25;1.50;;;18.00;99.90;;;17.97;100.00;96571.31;4943677;28;20142;-76
2023/07/25 07:48:19;;;;;;;6.80;1.50;;;18.20;99.90;;;17.77;100.00;96553.81;4942309;28;20059;-76
2023/07/25 07:50:46;;;;;;;3.70;1.77;;;18.30;99.90;;;18.27;100.00;96539.78;4943995;28;20507;-75
2023/07/25 07:53:13;;;;;;;5.05;1.75;;;18.50;99.90;;;18.27;100.00;96535.38;4940443;28;20047;-76
2023/07/25 07:55:40;;;;;;;3.90;1.50;;;18.40;99.90;;;18.27;100.00;96529.28;4943236;28;20056;-75
2023/07/25 07:58:07;;;;;;;3.03;1.10;;;18.50;99.90;;;18.46;100.00;96513.50;4951901;28;20553;-75
2023/07/25 08:00:34;;;;;;;3.53;1.30;;;18.60;99.90;;;18.52;100.00;96506.84;4943304;28;20544;-76
2023/07/25 08:03:04;;;;;;;3.35;1.20;;;18.80;99.90;;;18.56;100.00;96505.59;4941181;28;20059;-74
2023/07/25 08:05:31;;;;;;;2.95;1.00;;;18.70;99.90;;;18.72;100.00;96532.13;4930226;28;20055;-76
2023/07/25 08:07:58;;;;;;;4.57;1.02;;;18.60;99.90;;;18.26;100.00;96554.72;4943052;28;20039;-74
2023/07/25 08:10:25;;;;;;;9.88;0.80;;;18.60;99.90;;;16.79;100.00;96588.44;4944421;28;20767;-73
2023/07/25 08:12:52;;;;;;;2.80;0.60;;;18.20;99.90;;;16.07;100.00;96656.19;4944180;28;20070;-73
2023/07/25 08:15:19;;;;;;;2.78;0.50;;;17.50;99.90;;;15.71;100.00;96686.06;4951274;28;20138;-73
2023/07/25 08:17:46;;;;;;;1.60;0.47;;;16.90;99.90;;;15.05;100.00;96706.75;4943149;28;20919;-73
2023/07/25 08:20:13;;;;;;;3.35;0.50;;;16.40;99.90;;;14.84;100.00;96732.69;4944934;28;20048;-73
2023/07/25 08:22:41;;;;;;;4.80;0.50;;;15.90;99.90;;;14.71;100.00;96756.28;4944267;28;20055;-74
2023/07/25 08:25:09;;;;;;;3.90;0.40;;;15.60;99.90;;;14.81;100.00;96767.72;4945762;28;20693;-73
2023/07/25 08:27:36;;;;;;;4.45;0.50;;;15.50;99.90;;;14.54;100.00;96774.91;4946250;28;20055;-74
2023/07/25 08:30:04;;;;;;;2.17;0.50;;;15.40;99.90;;;14.55;100.00;96790.50;4947805;28;20095;-74
2023/07/25 08:32:32;;;;;;;2.20;0.50;;;15.20;99.90;;;14.69;100.00;96791.25;4944078;28;20103;-74
2023/07/25 08:34:59;;;;;;;1.88;0.40;;;15.30;99.90;;;14.73;100.00;96816.22;4944881;28;20957;-74
2023/07/25 08:37:26;;;;;;;3.35;0.50;;;15.30;99.90;;;14.90;100.00;96817.66;4943491;28;20139;-74
2023/07/25 08:39:53;;;;;;;1.70;0.63;;;15.40;99.90;;;14.79;100.00;96826.25;4962752;28;20050;-74
2023/07/25 08:42:25;;;;;;;1.00;0.57;;;15.40;99.90;;;14.97;100.00;96832.75;4947085;28;20043;-75
2023/07/25 08:44:55;;;;;;;1.70;0.50;;;15.40;99.90;;;14.97;100.00;96829.31;4958564;28;20106;-75
2023/07/25 08:47:31;;;;;;;1.20;0.60;;;15.50;99.90;;;15.09;100.00;96831.03;4943486;28;20121;-75
2023/07/25 08:50:01;;;;;;;2.20;0.52;;;15.60;99.90;;;15.19;100.00;96825.97;4961863;28;20524;-74
2023/07/25 08:52:30;;;;;;;0.93;0.50;;;15.70;99.90;;;15.00;100.00;96826.47;4945545;28;20054;-75
2023/07/25 08:54:57;;;;;;;0.88;0.60;;;15.70;99.90;;;15.06;100.00;96834.72;4944991;28;20047;-75
2023/07/25 08:57:26;;;;;;;3.22;0.70;;;15.70;99.90;;;14.92;100.00;96836.66;4930413;28;20043;-75
2023/07/25 08:59:54;;;;;;;1.52;0.90;;;15.50;99.90;;;14.87;100.00;96841.38;4926521;28;20043;-74
2023/07/25 09:02:21;;;;;;;1.85;0.80;;;15.50;99.90;;;14.90;100.00;96835.94;4940180;28;20724;-75
2023/07/25 09:04:50;;;;;;;2.30;1.02;;;15.50;99.90;;;14.81;100.00;96835.63;4938097;28;20055;-75
2023/07/25 09:07:17;;;;;;;6.30;1.33;;;15.60;99.90;;;14.88;100.00;96843.03;4950372;28;20055;-75
2023/07/25 09:09:44;;;;;;;2.45;1.10;;;15.50;99.90;;;15.09;100.00;96846.72;4944850;28;20054;-74
2023/07/25 09:12:11;;;;;;;3.20;1.30;;;15.50;99.90;;;15.15;100.00;96848.06;4943750;28;20050;-74
2023/07/25 09:14:41;;;;;;;2.88;1.08;;;15.60;99.90;;;15.08;100.00;96849.47;4936888;28;20052;-75
2023/07/25 09:17:08;;;;;;;2.90;1.30;;;15.60;99.90;;;15.19;100.00;96849.50;4940709;28;20481;-73
2023/07/25 09:19:35;;;;;;;2.15;0.98;;;15.60;99.90;;;14.98;100.00;96841.44;4947663;28;20055;-74
2023/07/25 09:22:02;;;;;;;2.13;1.10;;;15.70;99.90;;;15.05;100.00;96846.13;4941683;28;20055;-75
2023/07/25 09:24:39;;;;;;;2.40;1.10;;;15.70;99.90;;;15.47;100.00;96850.94;4960579;28;20587;-73
2023/07/25 09:27:26;;;;;;;2.55;1.10;;;15.80;99.90;;;15.58;100.00;96845.75;4952397;28;20113;-74
2023/07/25 09:29:54;;;;;;;2.13;1.30;;;15.90;99.90;;;15.86;100.00;96835.84;4943056;28;20051;-74
2023/07/25 09:32:28;;;;;;;3.50;1.15;;;16.00;99.90;;;15.96;100.00;96830.72;4942638;28;20118;-74
2023/07/25 09:35:05;;;;;;;2.55;1.10;;;16.30;99.90;;;16.34;100.00;96811.25;4946168;28;20353;-75
2023/07/25 09:37:33;;;;;;;1.60;1.10;;;16.50;99.90;;;17.11;100.00;96798.13;4939141;28;20508;-74
2023/07/25 09:40:00;;;;;;;1.40;0.88;;;16.80;99.90;;;17.14;100.00;96775.09;4949105;28;20055;-75
2023/07/25 09:42:28;;;;;;;1.77;1.10;;;17.40;99.90;;;17.33;100.00;96747.34;4963082;28;20119;-75
2023/07/25 09:44:56;;;;;;;1.67;1.05;;;17.60;99.90;;;17.50;100.00;96740.72;4947997;28;20062;-76
2023/07/25 09:47:26;;;;;;;1.55;1.02;;;18.00;99.90;;;17.93;100.00;96721.34;4945513;28;20158;-75
2023/07/25 09:49:56;;;;;;;0.98;0.75;;;18.20;99.90;;;17.55;100.00;96691.31;4947724;28;20628;-75
2023/07/25 09:52:23;;;;;;;1.77;0.98;;;18.30;99.90;;;17.77;100.00;96708.69;4951171;28;20127;-75
2023/07/25 09:54:51;;;;;;;1.85;0.80;;;18.30;99.90;;;16.95;100.00;96709.41;4953304;28;20526;-74
2023/07/25 09:57:20;;;;;;;1.60;1.00;;;18.00;99.90;;;17.11;100.00;96698.50;4948932;28;20074;-75
2023/07/25 09:59:49;;;;;;;1.63;1.10;;;17.90;99.90;;;17.30;100.00;96696.00;4949421;28;20050;-75
2023/07/25 10:02:17;;;;;;;2.20;0.90;;;18.00;99.90;;;17.57;100.00;96689.38;4950582;28;20134;-75
2023/07/25 10:04:47;;;;;;;1.23;0.80;;;18.10;99.90;;;17.77;100.00;96692.94;4947760;28;20058;-75
2023/07/25 10:07:15;;;;;;;2.25;1.20;;;18.20;99.90;;;17.88;100.00;96669.25;4946779;28;20055;-75
2023/07/25 10:09:45;;;;;;;3.75;0.90;;;18.40;99.90;;;17.69;100.00;96677.81;4942105;28;20062;-76
2023/07/25 10:12:12;;;;;;;2.30;0.95;;;18.50;99.90;;;17.84;100.00;96680.97;4947165;28;20058;-74
2023/07/25 10:14:39;;;;;;;1.00;0.85;;;18.60;99.90;;;18.65;100.00;96666.91;4949991;28;20047;-73